Time;durP1;ratioP1;P1;durP2;ratioP2;P2;SDS_P1;SDS_P2;PMS_P1;PMS_P2;Temp;Humidity;BMP_temperature;BMP_pressure;BME280_temperature;BME280_humidity;BME280_pressure;Samples;Min_cycle;Max_cycle;Signal;HPM_P1;HPM_P2
2021/01/28 00:00:23;;;;;;;38.83;21.27;;;;;;;3.58;91.56;100546.56;10108282;28;20055;-67
2021/01/28 00:05:21;;;;;;;35.75;19.35;;;;;;;3.62;90.75;100556.81;10110726;28;20043;-72
2021/01/28 00:10:18;;;;;;;34.42;20.35;;;;;;;3.61;90.71;100549.81;10139549;28;20054;-69
2021/01/28 00:15:26;;;;;;;39.03;20.55;;;;;;;3.67;91.77;100548.72;10110592;28;20485;-72
2021/01/28 00:20:33;;;;;;;36.53;20.60;;;;;;;3.71;91.49;100533.53;10142737;28;20756;-66
2021/01/28 00:25:30;;;;;;;34.38;20.13;;;;;;;3.74;91.47;100530.31;10137696;28;20057;-71
2021/01/28 00:30:32;;;;;;;37.42;20.05;;;;;;;3.74;91.72;100533.00;10137611;28;20129;-72
2021/01/28 00:35:42;;;;;;;38.78;21.45;;;;;;;3.83;91.13;100534.06;10127222;28;20054;-71
2021/01/28 00:40:39;;;;;;;43.92;21.17;;;;;;;3.73;91.84;100536.78;10101303;28;20043;-71
2021/01/28 00:45:35;;;;;;;35.58;18.38;;;;;;;3.72;92.36;100538.69;10090260;28;20065;-71
2021/01/28 00:50:34;;;;;;;36.95;19.63;;;;;;;3.72;92.55;100548.69;10101726;28;20057;-72
2021/01/28 00:55:30;;;;;;;41.33;20.67;;;;;;;3.79;92.44;100530.28;10106258;28;20676;-71
2021/01/28 01:00:30;;;;;;;31.35;17.55;;;;;;;3.73;92.12;100524.06;10107842;28;20137;-71
2021/01/28 01:05:29;;;;;;;29.70;14.50;;;;;;;3.65;92.00;100534.66;10107484;28;20062;-69
2021/01/28 01:10:49;;;;;;;27.85;16.45;;;;;;;3.64;92.41;100543.84;10092838;28;20407;-66
2021/01/28 01:15:46;;;;;;;33.42;16.15;;;;;;;3.75;91.98;100556.25;10107311;28;20051;-66
2021/01/28 01:20:42;;;;;;;33.08;17.92;;;;;;;3.83;91.85;100569.22;10095920;28;20043;-67
2021/01/28 01:25:38;;;;;;;31.77;18.50;;;;;;;3.80;91.71;100570.56;10103383;28;20051;-70
2021/01/28 01:30:34;;;;;;;30.30;15.50;;;;;;;3.78;91.45;100577.31;10101545;28;20047;-71
2021/01/28 01:35:31;;;;;;;27.88;15.75;;;;;;;3.78;90.61;100571.91;10089683;28;20057;-68
2021/01/28 01:40:40;;;;;;;28.90;16.77;;;;;;;3.65;89.99;100561.72;10100111;28;20047;-71
2021/01/28 01:46:01;;;;;;;17.30;10.23;;;;;;;3.57;88.66;100572.00;10100931;28;21291;-71
2021/01/28 01:51:14;;;;;;;19.05;9.73;;;;;;;3.55;87.33;100574.16;10111819;28;20239;-68
2021/01/28 01:56:33;;;;;;;14.38;9.32;;;;;;;3.57;87.29;100577.41;10117827;28;20051;-68
2021/01/28 02:01:34;;;;;;;18.23;9.65;;;;;;;3.40;86.97;100578.78;10140048;28;20068;-69
2021/01/28 02:06:47;;;;;;;20.48;10.93;;;;;;;3.42;86.65;100577.44;10132769;28;20051;-68
2021/01/28 02:11:45;;;;;;;25.60;12.73;;;;;;;3.42;86.44;100580.13;10105295;28;20460;-67
2021/01/28 02:16:58;;;;;;;24.50;12.25;;;;;;;3.18;86.59;100585.31;10120221;28;20054;-68
2021/01/28 02:21:59;;;;;;;24.90;11.43;;;;;;;3.07;86.11;100594.50;10117692;28;20109;-65
2021/01/28 02:26:56;;;;;;;27.00;12.65;;;;;;;3.11;84.59;100579.34;10107347;28;20050;-66
2021/01/28 02:31:54;;;;;;;31.52;14.07;;;;;;;3.13;85.20;100567.22;10107623;28;20055;-66
2021/01/28 02:36:52;;;;;;;27.30;13.85;;;;;;;2.85;85.93;100570.44;10105465;28;20051;-70
2021/01/28 02:42:00;;;;;;;28.17;13.38;;;;;;;2.84;85.40;100568.84;10099409;28;20059;-70
2021/01/28 02:46:56;;;;;;;27.45;13.15;;;;;;;2.63;84.81;100568.81;10097907;28;20054;-70
2021/01/28 02:51:52;;;;;;;30.70;14.15;;;;;;;2.61;85.01;100567.47;10094220;28;20109;-66
2021/01/28 02:56:48;;;;;;;27.95;12.55;;;;;;;2.53;85.11;100568.81;10115958;28;20675;-66
2021/01/28 03:01:44;;;;;;;28.98;13.80;;;;;;;2.46;85.65;100570.94;10134726;28;20058;-71
2021/01/28 03:06:41;;;;;;;26.92;13.57;;;;;;;2.48;85.46;100582.28;10139176;28;20185;-72
2021/01/28 03:11:37;;;;;;;31.38;12.88;;;;;;;2.33;86.00;100571.47;10137078;28;20500;-66
2021/01/28 03:16:33;;;;;;;26.88;11.45;;;;;;;2.26;85.55;100575.22;10139264;28;20048;-66
2021/01/28 03:21:29;;;;;;;25.38;11.48;;;;;;;2.29;85.29;100577.38;10132052;28;20370;-71
2021/01/28 03:26:25;;;;;;;26.33;11.48;;;;;;;2.37;85.30;100573.38;10132181;28;20054;-66
2021/01/28 03:31:21;;;;;;;26.15;12.07;;;;;;;2.45;85.43;100574.72;10101545;28;20693;-67
2021/01/28 03:36:18;;;;;;;20.90;9.13;;;;;;;2.47;85.29;100572.56;10107927;28;20134;-70
2021/01/28 03:41:14;;;;;;;29.48;12.30;;;;;;;2.49;84.96;100578.53;10100728;28;20054;-70
2021/01/28 03:46:10;;;;;;;19.73;8.07;;;;;;;2.51;84.25;100573.66;10098349;28;20046;-67
2021/01/28 03:51:06;;;;;;;21.70;9.27;;;;;;;2.49;84.68;100573.94;10111778;28;20137;-73
2021/01/28 03:56:02;;;;;;;16.75;8.35;;;;;;;2.48;84.72;100571.47;10106191;28;20074;-72
2021/01/28 04:00:59;;;;;;;17.85;8.30;;;;;;;2.42;83.96;100573.38;10111038;28;20054;-72
2021/01/28 04:05:55;;;;;;;15.43;7.90;;;;;;;2.37;83.32;100567.97;10136009;28;20137;-71
2021/01/28 04:10:51;;;;;;;14.13;6.82;;;;;;;2.20;82.55;100570.88;10129438;28;20085;-71
2021/01/28 04:15:47;;;;;;;16.45;7.80;;;;;;;2.30;82.05;100576.31;10134234;28;20097;-67
2021/01/28 04:20:43;;;;;;;14.25;6.22;;;;;;;2.15;81.92;100578.16;10100551;28;20050;-68
2021/01/28 04:25:40;;;;;;;14.52;6.70;;;;;;;2.04;81.10;100580.00;10103883;28;22608;-68
2021/01/28 04:30:36;;;;;;;11.95;6.03;;;;;;;2.00;81.09;100581.63;10106195;28;20468;-68
2021/01/28 04:35:32;;;;;;;14.80;7.60;;;;;;;2.06;81.16;100565.16;10097970;28;20061;-71
2021/01/28 04:40:39;;;;;;;16.17;7.05;;;;;;;2.07;81.21;100566.81;10114721;28;20053;-70
2021/01/28 04:45:35;;;;;;;12.85;5.75;;;;;;;2.03;81.08;100565.72;10095454;28;20050;-68
2021/01/28 04:50:37;;;;;;;13.10;7.22;;;;;;;2.06;81.27;100558.97;10106329;28;20050;-71
2021/01/28 04:55:42;;;;;;;15.48;6.88;;;;;;;2.08;81.09;100570.31;10102354;28;20061;-69
2021/01/28 05:00:38;;;;;;;14.35;6.97;;;;;;;2.00;80.51;100560.06;10104577;28;20047;-66
2021/01/28 05:05:35;;;;;;;14.75;6.88;;;;;;;1.94;80.89;100567.28;10101510;28;20062;-67
2021/01/28 05:10:31;;;;;;;13.75;7.22;;;;;;;1.86;79.71;100567.81;10108140;28;20046;-68
2021/01/28 05:15:33;;;;;;;13.35;5.47;;;;;;;1.86;79.54;100557.03;10106043;28;20077;-70
2021/01/28 05:20:31;;;;;;;14.00;7.07;;;;;;;1.68;80.01;100552.91;10130724;28;20051;-69
2021/01/28 05:25:27;;;;;;;13.57;7.20;;;;;;;1.66;80.06;100550.44;10100195;28;20047;-69
2021/01/28 05:30:43;;;;;;;14.05;7.65;;;;;;;1.62;80.65;100559.31;10100755;28;20086;-70
2021/01/28 05:35:40;;;;;;;14.00;7.22;;;;;;;1.59;80.33;100554.47;10107334;28;20620;-69
2021/01/28 05:40:39;;;;;;;13.80;6.03;;;;;;;1.58;80.54;100547.44;10110132;28;20046;-69
2021/01/28 05:45:38;;;;;;;13.82;6.78;;;;;;;1.60;80.74;100550.69;10120206;28;20058;-70
2021/01/28 05:50:34;;;;;;;14.18;7.35;;;;;;;1.59;80.93;100559.84;10099197;28;20133;-67
2021/01/28 05:55:30;;;;;;;13.18;7.30;;;;;;;1.67;80.40;100552.09;10130026;28;20050;-68
2021/01/28 06:00:48;;;;;;;14.23;7.38;;;;;;;1.75;80.68;100541.88;10101882;28;20062;-69
2021/01/28 06:05:50;;;;;;;13.63;6.90;;;;;;;1.79;80.74;100533.00;10088142;28;20103;-69
2021/01/28 06:10:55;;;;;;;14.40;6.80;;;;;;;1.81;80.90;100525.47;10091064;28;20047;-68
2021/01/28 06:16:18;;;;;;;12.90;6.63;;;;;;;1.78;80.08;100525.97;10092729;28;20058;-69
2021/01/28 06:21:33;;;;;;;13.52;7.45;;;;;;;1.73;80.25;100512.47;10095331;28;20134;-70
2021/01/28 06:27:02;;;;;;;12.10;7.00;;;;;;;1.72;80.32;100508.19;10095788;28;20078;-69
2021/01/28 06:32:28;;;;;;;14.05;7.35;;;;;;;1.62;80.80;100500.03;10104895;28;20134;-69
2021/01/28 06:37:45;;;;;;;15.18;7.30;;;;;;;1.61;80.80;100509.22;10093802;28;20049;-70
2021/01/28 06:43:02;;;;;;;11.65;6.70;;;;;;;1.60;80.59;100507.56;10101755;28;20670;-70
2021/01/28 06:48:17;;;;;;;14.40;6.85;;;;;;;1.60;80.51;100502.19;10100442;28;20128;-69
2021/01/28 06:53:17;;;;;;;14.15;7.93;;;;;;;1.57;80.89;100500.03;10108653;28;20058;-69
2021/01/28 06:58:44;;;;;;;17.35;8.93;;;;;;;1.55;80.80;100504.84;10103337;28;20038;-70
2021/01/28 07:04:12;;;;;;;14.38;7.70;;;;;;;1.55;80.93;100499.47;10084042;28;20109;-69
2021/01/28 07:09:21;;;;;;;15.73;7.40;;;;;;;1.55;80.93;100489.50;10107924;28;20051;-69
2021/01/28 07:14:18;;;;;;;15.88;8.27;;;;;;;1.49;81.00;100485.19;10102191;28;20046;-70
2021/01/28 07:19:24;;;;;;;18.10;8.07;;;;;;;1.42;81.00;100490.81;10096900;28;20413;-69
2021/01/28 07:24:27;;;;;;;15.10;8.68;;;;;;;1.50;81.13;100496.75;10093629;28;20772;-68
2021/01/28 07:29:29;;;;;;;19.15;8.52;;;;;;;1.46;81.21;100491.91;10088616;28;20125;-68
2021/01/28 07:34:25;;;;;;;15.73;8.68;;;;;;;1.45;81.04;100501.03;10085993;28;20105;-67
2021/01/28 07:39:30;;;;;;;14.93;8.45;;;;;;;1.34;81.16;100493.97;10088733;28;20079;-71
2021/01/28 07:44:26;;;;;;;13.15;7.63;;;;;;;1.34;80.85;100499.38;10081614;28;20626;-67
2021/01/28 07:49:26;;;;;;;14.55;7.70;;;;;;;1.27;80.94;100496.09;10091267;28;20133;-70
2021/01/28 07:54:22;;;;;;;16.10;8.40;;;;;;;1.21;80.76;100494.47;10088152;28;20059;-67
2021/01/28 07:59:38;;;;;;;14.02;7.63;;;;;;;1.26;80.34;100510.66;10095956;28;20058;-67
2021/01/28 08:04:58;;;;;;;14.02;8.15;;;;;;;1.18;80.00;100516.50;10092626;28;20050;-67
2021/01/28 08:10:00;;;;;;;13.63;8.38;;;;;;;1.28;80.25;100505.81;10084050;28;20701;-67
2021/01/28 08:15:00;;;;;;;14.32;8.15;;;;;;;1.41;80.26;100499.13;10083608;28;20466;-67
2021/01/28 08:20:23;;;;;;;14.02;8.43;;;;;;;1.25;80.31;100492.84;10078313;28;20074;-66
2021/01/28 08:25:20;;;;;;;15.65;9.45;;;;;;;1.33;80.21;100496.94;10127912;28;20046;-67
2021/01/28 08:30:27;;;;;;;13.68;8.55;;;;;;;1.41;79.97;100499.94;10091394;28;20098;-68
2021/01/28 08:35:43;;;;;;;13.30;8.10;;;;;;;1.41;78.90;100489.16;10087701;28;20142;-66
2021/01/28 08:40:43;;;;;;;11.63;7.45;;;;;;;1.09;78.43;100486.59;10086549;28;20047;-67
2021/01/28 08:45:41;;;;;;;11.65;7.25;;;;;;;1.30;78.57;100487.50;10094198;28;20051;-67
2021/01/28 08:50:37;;;;;;;12.35;7.10;;;;;;;1.32;78.09;100473.75;10090365;28;20054;-67
2021/01/28 08:55:37;;;;;;;11.57;6.78;;;;;;;1.42;78.03;100480.03;10098794;28;20055;-66
2021/01/28 09:00:42;;;;;;;10.52;6.40;;;;;;;1.42;77.28;100480.03;10090836;28;20054;-66
2021/01/28 09:05:38;;;;;;;10.32;6.32;;;;;;;1.58;77.07;100466.59;10090467;28;20563;-67
2021/01/28 09:10:40;;;;;;;9.35;6.03;;;;;;;1.59;76.90;100463.66;10095906;28;20066;-67
2021/01/28 09:15:36;;;;;;;11.45;7.07;;;;;;;1.50;76.01;100475.19;10091525;28;20055;-67
2021/01/28 09:20:35;;;;;;;10.55;6.65;;;;;;;1.54;75.96;100454.75;10086611;28;20051;-67
2021/01/28 09:25:31;;;;;;;10.10;5.63;;;;;;;1.40;75.45;100454.41;10100345;28;20063;-66
2021/01/28 09:30:49;;;;;;;11.93;7.15;;;;;;;1.55;75.72;100434.78;10092318;28;20054;-67
2021/01/28 09:36:06;;;;;;;10.52;6.20;;;;;;;1.90;75.96;100442.16;10091348;28;20055;-67
2021/01/28 09:41:24;;;;;;;10.60;6.05;;;;;;;2.11;76.22;100426.81;10101676;28;20116;-69
2021/01/28 09:46:20;;;;;;;11.57;6.85;;;;;;;2.29;75.88;100429.00;10089276;28;20114;-67
2021/01/28 09:51:24;;;;;;;9.52;6.05;;;;;;;2.34;75.82;100405.78;10089143;28;20059;-67
2021/01/28 09:56:20;;;;;;;11.30;6.00;;;;;;;2.35;75.42;100418.22;10087948;28;20054;-67
2021/01/28 10:01:17;;;;;;;9.63;6.03;;;;;;;2.41;75.26;100414.41;10090743;28;20059;-69
2021/01/28 10:06:13;;;;;;;9.80;5.43;;;;;;;2.42;74.79;100421.47;10092829;28;20597;-70
2021/01/28 10:11:09;;;;;;;9.93;5.68;;;;;;;2.51;74.14;100430.63;10093657;28;21028;-66
2021/01/28 10:16:06;;;;;;;8.73;4.53;;;;;;;2.37;72.30;100429.53;10100730;28;20428;-68
2021/01/28 10:21:05;;;;;;;7.82;4.70;;;;;;;2.66;74.77;100427.91;10099794;28;20477;-68
2021/01/28 10:26:01;;;;;;;9.40;5.28;;;;;;;2.93;73.58;100421.38;10102926;28;20054;-65
2021/01/28 10:30:57;;;;;;;7.93;5.05;;;;;;;3.07;72.86;100417.00;10094984;28;20046;-67
2021/01/28 10:35:54;;;;;;;8.27;5.13;;;;;;;3.13;71.40;100410.53;10129205;28;20055;-66
2021/01/28 10:40:52;;;;;;;6.40;3.80;;;;;;;2.91;69.66;100413.53;10095949;28;20460;-69
2021/01/28 10:45:49;;;;;;;7.53;4.15;;;;;;;3.03;72.39;100420.53;10094294;28;20143;-66
2021/01/28 10:50:46;;;;;;;9.25;4.90;;;;;;;2.93;72.82;100415.97;10095815;28;20061;-66
2021/01/28 10:55:42;;;;;;;9.10;4.97;;;;;;;3.01;74.55;100418.09;10112450;28;20058;-68
2021/01/28 11:00:40;;;;;;;11.00;4.95;;;;;;;2.82;70.13;100408.97;10093746;28;20567;-67
2021/01/28 11:05:37;;;;;;;10.27;4.80;;;;;;;2.79;69.12;100404.13;10088614;28;20055;-66
2021/01/28 11:10:34;;;;;;;7.50;4.60;;;;;;;2.57;70.70;100389.03;10101313;28;20102;-67
2021/01/28 11:15:33;;;;;;;7.80;3.15;;;;;;;3.06;76.04;100396.47;10091233;28;20102;-68
2021/01/28 11:20:31;;;;;;;6.07;2.85;;;;;;;3.04;78.30;100385.16;10096458;28;20046;-66
2021/01/28 11:25:28;;;;;;;7.75;3.10;;;;;;;3.01;71.43;100372.19;10091003;28;20485;-67
2021/01/28 11:30:27;;;;;;;7.28;3.15;;;;;;;2.92;68.36;100365.75;10070190;28;20512;-69
2021/01/28 11:35:30;;;;;;;6.22;3.00;;;;;;;3.07;69.83;100346.78;10121171;28;20051;-66
2021/01/28 11:40:29;;;;;;;7.63;3.03;;;;;;;3.04;68.23;100347.34;10079817;28;20047;-66
2021/01/28 11:45:28;;;;;;;5.43;3.22;;;;;;;3.13;68.33;100345.69;10091815;28;20081;-66
2021/01/28 11:50:25;;;;;;;5.95;2.90;;;;;;;3.06;68.58;100334.34;10094418;28;20054;-66
2021/01/28 11:55:24;;;;;;;6.15;2.75;;;;;;;3.07;68.32;100335.19;10088434;28;20054;-66
2021/01/28 12:00:22;;;;;;;8.57;3.40;;;;;;;3.13;68.53;100336.75;10081726;28;20062;-66
2021/01/28 12:05:22;;;;;;;7.10;4.07;;;;;;;2.96;68.60;100323.59;10085076;28;20129;-67
2021/01/28 12:10:22;;;;;;;9.88;3.70;;;;;;;3.19;67.37;100324.03;10093383;28;20110;-67
2021/01/28 12:15:21;;;;;;;7.60;3.33;;;;;;;3.29;69.82;100315.88;10092567;28;20047;-66
2021/01/28 12:20:26;;;;;;;10.23;3.75;;;;;;;3.34;66.28;100323.94;10075885;28;20062;-67
2021/01/28 12:25:23;;;;;;;7.80;3.53;;;;;;;3.26;66.58;100313.75;10083375;28;20047;-67
2021/01/28 12:30:22;;;;;;;8.13;3.65;;;;;;;2.95;66.06;100308.50;10083052;28;20453;-69
2021/01/28 12:35:20;;;;;;;7.07;3.80;;;;;;;3.48;67.59;100314.16;10091508;28;20047;-66
2021/01/28 12:40:19;;;;;;;9.27;3.42;;;;;;;3.63;67.04;100315.13;10089872;28;20086;-66
2021/01/28 12:45:16;;;;;;;6.60;2.60;;;;;;;3.31;68.41;100313.69;10102756;28;20105;-67
2021/01/28 12:50:13;;;;;;;5.10;1.33;;;;;;;3.61;67.91;100311.91;10103806;28;20700;-66
2021/01/28 12:55:10;;;;;;;6.03;2.28;;;;;;;3.61;64.47;100306.50;10097066;28;20054;-68
2021/01/28 13:00:10;;;;;;;5.68;1.42;;;;;;;3.75;64.23;100296.66;10094160;28;20057;-67
2021/01/28 13:05:07;;;;;;;3.83;1.38;;;;;;;3.92;64.10;100291.66;10097297;28;20050;-67
2021/01/28 13:10:05;;;;;;;8.38;1.85;;;;;;;4.25;61.91;100283.78;10103053;28;20093;-66
2021/01/28 13:15:04;;;;;;;4.78;1.35;;;;;;;4.98;61.27;100279.94;10095679;28;20050;-66
2021/01/28 13:20:00;;;;;;;5.55;1.45;;;;;;;5.36;58.97;100265.59;10091230;28;20105;-67
2021/01/28 13:24:57;;;;;;;5.28;1.30;;;;;;;6.26;62.81;100266.31;10140206;28;20535;-68
2021/01/28 13:29:53;;;;;;;7.38;1.42;;;;;;;6.52;61.98;100267.47;10094713;28;20068;-67
2021/01/28 13:34:49;;;;;;;3.50;1.20;;;;;;;6.08;62.76;100266.09;10087735;28;20043;-68
2021/01/28 13:39:45;;;;;;;5.30;1.23;;;;;;;5.82;58.40;100259.47;10085450;28;20721;-66
2021/01/28 13:44:41;;;;;;;6.25;1.30;;;;;;;5.90;56.69;100261.50;10097409;28;20441;-68
2021/01/28 13:49:37;;;;;;;5.07;0.93;;;;;;;5.89;63.96;100249.03;10102208;28;20345;-67
2021/01/28 13:54:33;;;;;;;5.85;1.00;;;;;;;5.96;56.44;100263.03;10089494;28;20055;-67
2021/01/28 13:59:29;;;;;;;4.93;1.35;;;;;;;5.84;55.87;100258.06;10076396;28;145205;-67
2021/01/28 14:04:25;;;;;;;9.40;2.22;;;;;;;5.46;55.82;100268.19;10098055;28;20042;-66
2021/01/28 14:09:21;;;;;;;4.47;1.38;;;;;;;5.43;54.83;100257.91;10099245;28;20456;-66
2021/01/28 14:14:18;;;;;;;5.25;1.10;;;;;;;5.01;55.66;100268.53;10109740;28;20409;-66
2021/01/28 14:19:15;;;;;;;7.78;1.23;;;;;;;5.04;55.46;100272.56;10100770;28;20113;-67
2021/01/28 14:24:12;;;;;;;9.15;1.45;;;;;;;4.62;55.59;100276.88;10093452;28;20086;-67
2021/01/28 14:29:09;;;;;;;9.48;1.50;;;;;;;4.57;57.61;100276.91;10097929;28;20055;-66
2021/01/28 14:34:05;;;;;;;10.75;2.25;;;;;;;4.11;58.24;100280.13;10096778;28;20110;-68
2021/01/28 14:39:03;;;;;;;5.95;1.63;;;;;;;4.00;57.50;100277.50;10100211;28;20118;-67
2021/01/28 14:43:59;;;;;;;4.15;1.13;;;;;;;4.05;57.29;100287.47;10089443;28;20054;-67
2021/01/28 14:48:55;;;;;;;8.27;1.67;;;;;;;3.93;57.63;100287.84;10096576;28;20054;-65
2021/01/28 14:53:51;;;;;;;3.95;1.40;;;;;;;3.83;58.65;100290.66;10099621;28;20059;-67
2021/01/28 14:58:47;;;;;;;5.68;1.67;;;;;;;3.71;58.14;100301.00;10095669;28;20130;-67
2021/01/28 15:03:43;;;;;;;4.80;1.45;;;;;;;3.78;60.92;100313.13;10095828;28;20038;-67
2021/01/28 15:08:39;;;;;;;5.95;2.00;;;;;;;3.70;59.79;100323.72;10097377;28;20559;-67
2021/01/28 15:13:35;;;;;;;8.25;1.70;;;;;;;3.47;61.59;100326.03;10099466;28;20164;-67
2021/01/28 15:18:31;;;;;;;5.97;1.30;;;;;;;3.43;66.03;100326.88;10106974;28;20059;-67
2021/01/28 15:23:27;;;;;;;5.20;1.52;;;;;;;3.47;62.35;100328.75;10104265;28;20047;-66
2021/01/28 15:28:23;;;;;;;7.30;1.48;;;;;;;3.12;61.54;100338.66;10100469;28;20058;-67
2021/01/28 15:33:19;;;;;;;3.97;1.30;;;;;;;3.32;60.90;100331.56;10102877;28;20428;-67
2021/01/28 15:38:20;;;;;;;5.95;1.58;;;;;;;3.27;60.18;100336.97;10090486;28;20043;-69
2021/01/28 15:43:16;;;;;;;9.63;1.95;;;;;;;3.10;61.28;100340.81;10093667;28;20175;-66
2021/01/28 15:48:13;;;;;;;6.97;1.70;;;;;;;3.09;61.03;100344.63;10089440;28;20054;-66
2021/01/28 15:53:09;;;;;;;8.88;1.90;;;;;;;2.90;61.36;100349.81;10094463;28;20104;-68
2021/01/28 15:58:05;;;;;;;9.25;1.90;;;;;;;2.90;61.19;100362.50;10091953;28;20110;-66
2021/01/28 16:03:02;;;;;;;5.03;1.52;;;;;;;2.77;61.51;100358.50;10091292;28;20074;-66
2021/01/28 16:07:58;;;;;;;6.70;1.65;;;;;;;2.70;62.07;100358.78;10095033;28;20460;-67
2021/01/28 16:12:55;;;;;;;7.28;1.80;;;;;;;2.62;61.97;100372.84;10092491;28;20050;-67
2021/01/28 16:17:56;;;;;;;6.15;2.03;;;;;;;2.62;62.66;100385.53;10092614;28;20055;-67
2021/01/28 16:22:54;;;;;;;9.80;2.33;;;;;;;2.55;62.59;100393.91;10090678;28;20429;-67
2021/01/28 16:27:51;;;;;;;7.55;2.75;;;;;;;2.46;62.78;100398.22;10096262;28;20051;-66
2021/01/28 16:32:57;;;;;;;9.27;2.33;;;;;;;2.45;62.78;100415.50;10106697;28;20129;-73
2021/01/28 16:37:54;;;;;;;7.13;2.58;;;;;;;2.34;63.68;100424.69;10100711;28;20047;-66
2021/01/28 16:42:54;;;;;;;7.13;2.20;;;;;;;2.40;63.07;100429.00;10112056;28;20054;-66
2021/01/28 16:47:50;;;;;;;6.35;1.95;;;;;;;2.39;64.20;100446.25;10098590;28;20047;-66
2021/01/28 16:52:47;;;;;;;4.63;1.92;;;;;;;2.39;63.39;100448.97;10104972;28;20066;-66
2021/01/28 16:57:45;;;;;;;9.13;2.50;;;;;;;2.24;62.82;100447.88;10101528;28;20042;-68
2021/01/28 17:02:41;;;;;;;9.48;3.00;;;;;;;2.12;62.57;100449.22;10098355;28;20494;-66
2021/01/28 17:07:40;;;;;;;4.93;2.33;;;;;;;2.07;62.83;100468.91;10104753;28;20047;-66
2021/01/28 17:12:36;;;;;;;8.52;2.47;;;;;;;2.09;63.17;100461.38;10099873;28;22169;-67
2021/01/28 17:17:32;;;;;;;6.18;2.97;;;;;;;2.15;63.06;100464.88;10101969;28;20105;-66
2021/01/28 17:22:29;;;;;;;6.13;3.03;;;;;;;2.05;63.94;100465.66;10098299;28;20138;-65
2021/01/28 17:27:25;;;;;;;11.73;2.90;;;;;;;2.03;63.81;100473.22;10113738;28;20051;-66
2021/01/28 17:32:21;;;;;;;6.90;2.42;;;;;;;2.07;63.96;100468.91;10119099;28;20054;-66
2021/01/28 17:37:18;;;;;;;10.20;2.95;;;;;;;1.92;63.44;100463.47;10138992;28;20646;-66
2021/01/28 17:42:14;;;;;;;6.72;2.65;;;;;;;2.07;63.52;100452.72;10115965;28;20051;-66
2021/01/28 17:47:10;;;;;;;10.25;3.75;;;;;;;2.02;63.57;100450.00;10084060;28;20130;-68
2021/01/28 17:52:07;;;;;;;10.00;2.85;;;;;;;2.03;64.13;100448.94;10076384;28;20559;-66
2021/01/28 17:57:03;;;;;;;9.50;2.80;;;;;;;2.04;63.54;100448.69;10076678;28;20055;-68
2021/01/28 18:01:59;;;;;;;10.48;3.25;;;;;;;2.04;63.64;100445.97;10094843;28;20477;-66
2021/01/28 18:06:56;;;;;;;10.75;3.70;;;;;;;2.07;63.81;100447.34;10086861;28;20099;-66
2021/01/28 18:11:56;;;;;;;8.30;3.50;;;;;;;2.05;63.98;100439.50;10090801;28;20547;-67
2021/01/28 18:16:52;;;;;;;9.27;3.53;;;;;;;1.80;63.79;100453.75;10085001;28;20425;-67
2021/01/28 18:21:49;;;;;;;12.93;3.53;;;;;;;1.91;64.74;100478.03;10105828;28;20058;-68
2021/01/28 18:26:45;;;;;;;11.32;4.20;;;;;;;1.95;64.31;100481.81;10128342;28;20559;-68
2021/01/28 18:31:42;;;;;;;9.13;3.70;;;;;;;1.93;64.00;100483.94;10130624;28;20153;-67
2021/01/28 18:36:38;;;;;;;7.60;3.38;;;;;;;1.86;64.30;100463.47;10125252;28;20053;-66
2021/01/28 18:41:34;;;;;;;9.85;3.63;;;;;;;1.82;64.38;100467.75;10118728;28;20105;-67
2021/01/28 18:46:30;;;;;;;8.80;3.60;;;;;;;1.78;64.70;100434.31;10107840;28;20754;-68
2021/01/28 18:51:26;;;;;;;9.85;3.50;;;;;;;1.65;64.76;100451.00;10126192;28;20057;-67
2021/01/28 18:56:23;;;;;;;8.48;3.25;;;;;;;1.69;64.71;100435.91;10098327;28;20440;-71
2021/01/28 19:01:19;;;;;;;8.30;3.35;;;;;;;1.61;64.94;100441.84;10108617;28;20046;-67
2021/01/28 19:06:15;;;;;;;8.52;3.67;;;;;;;1.46;66.10;100438.00;10125577;28;20146;-67
2021/01/28 19:11:11;;;;;;;8.98;3.53;;;;;;;1.38;66.08;100460.06;10099061;28;20125;-67
2021/01/28 19:16:09;;;;;;;10.20;4.70;;;;;;;1.27;66.90;100471.84;10105222;28;20409;-67
2021/01/28 19:21:07;;;;;;;8.27;4.03;;;;;;;1.13;67.44;100449.16;10086773;28;20062;-69
2021/01/28 19:26:04;;;;;;;8.60;4.75;;;;;;;1.12;67.72;100436.78;10093509;28;20319;-66
2021/01/28 19:31:01;;;;;;;12.13;4.53;;;;;;;1.07;66.87;100431.34;10097879;28;20102;-65
2021/01/28 19:35:57;;;;;;;13.27;4.57;;;;;;;1.00;67.15;100413.56;10097790;28;20074;-66
2021/01/28 19:40:55;;;;;;;11.00;4.03;;;;;;;0.90;67.71;100416.19;10090849;28;20062;-66
2021/01/28 19:45:52;;;;;;;12.68;5.15;;;;;;;0.87;67.34;100408.66;10103107;28;20054;-67
2021/01/28 19:50:50;;;;;;;11.45;4.00;;;;;;;0.89;67.32;100413.78;10097227;28;20054;-67
2021/01/28 19:55:47;;;;;;;13.27;5.43;;;;;;;0.83;68.23;100418.31;10099786;28;20054;-68
2021/01/28 20:00:44;;;;;;;15.38;4.95;;;;;;;0.83;68.60;100435.25;10095861;28;20050;-67
2021/01/28 20:05:41;;;;;;;13.70;5.47;;;;;;;0.87;68.93;100435.56;10107708;28;20126;-70
2021/01/28 20:10:43;;;;;;;8.85;4.63;;;;;;;1.03;68.50;100439.97;10095794;28;20156;-67
2021/01/28 20:15:39;;;;;;;9.93;4.80;;;;;;;1.07;68.53;100428.66;10135783;28;20065;-67
2021/01/28 20:20:41;;;;;;;13.77;5.32;;;;;;;1.08;67.92;100425.72;10127358;28;20403;-67
2021/01/28 20:25:37;;;;;;;10.52;4.35;;;;;;;1.08;68.03;100449.16;10125660;28;20079;-67
2021/01/28 20:30:51;;;;;;;7.15;3.20;;;;;;;1.12;67.91;100461.81;10090385;28;20121;-67
2021/01/28 20:35:52;;;;;;;8.75;3.45;;;;;;;1.19;67.89;100472.38;10090041;28;20498;-67
2021/01/28 20:40:48;;;;;;;7.43;3.20;;;;;;;1.17;68.34;100482.59;10082965;28;20137;-70
2021/01/28 20:45:44;;;;;;;12.73;3.50;;;;;;;1.09;67.84;100485.75;10087678;28;20042;-69
2021/01/28 20:50:45;;;;;;;7.45;3.05;;;;;;;1.16;68.42;100486.34;10086502;28;20120;-70
2021/01/28 20:55:41;;;;;;;12.23;3.47;;;;;;;1.16;68.27;100494.41;10092164;28;20129;-69
2021/01/28 21:00:37;;;;;;;8.80;3.50;;;;;;;1.16;68.77;100491.72;10093656;28;20046;-70
2021/01/28 21:05:34;;;;;;;8.45;3.58;;;;;;;1.20;68.61;100495.53;10095439;28;20042;-71
2021/01/28 21:10:30;;;;;;;7.75;3.10;;;;;;;1.27;68.28;100496.91;10107801;28;20050;-71
2021/01/28 21:15:29;;;;;;;9.00;3.70;;;;;;;1.26;68.79;100487.22;10085759;28;20672;-71
2021/01/28 21:20:27;;;;;;;7.75;3.72;;;;;;;1.16;68.32;100473.69;10095589;28;20058;-71
2021/01/28 21:25:26;;;;;;;8.55;3.40;;;;;;;1.19;68.69;100475.06;10100119;28;20085;-72
2021/01/28 21:30:25;;;;;;;7.00;3.35;;;;;;;1.17;68.67;100456.47;10134060;28;20050;-71
2021/01/28 21:35:25;;;;;;;8.13;3.45;;;;;;;1.23;67.94;100454.59;10133289;28;20051;-71
2021/01/28 21:40:21;;;;;;;8.27;3.70;;;;;;;1.13;67.92;100466.13;10103762;28;20105;-70
2021/01/28 21:45:21;;;;;;;11.50;3.67;;;;;;;1.23;67.52;100459.97;10102761;28;20054;-71
2021/01/28 21:50:18;;;;;;;10.27;3.55;;;;;;;1.25;67.36;100474.00;10135494;28;20453;-71
2021/01/28 21:55:19;;;;;;;6.28;3.40;;;;;;;1.22;67.91;100469.13;10137494;28;20054;-71
2021/01/28 22:00:16;;;;;;;14.30;3.83;;;;;;;1.28;67.92;100462.72;10141224;28;20101;-70
2021/01/28 22:05:12;;;;;;;12.25;4.00;;;;;;;1.27;68.42;100461.09;10137654;28;20046;-69
2021/01/28 22:10:09;;;;;;;11.70;4.85;;;;;;;1.22;68.11;100455.69;10150353;28;20061;-71
2021/01/28 22:15:09;;;;;;;11.32;4.00;;;;;;;1.19;67.67;100458.91;10150473;28;20054;-72
2021/01/28 22:20:06;;;;;;;8.60;4.40;;;;;;;1.19;67.72;100453.50;10149753;28;20532;-71
2021/01/28 22:25:08;;;;;;;11.55;4.43;;;;;;;1.23;68.27;100454.59;10101757;28;20055;-70
2021/01/28 22:30:07;;;;;;;8.32;3.58;;;;;;;1.02;68.01;100449.13;10099362;28;20097;-71
2021/01/28 22:35:04;;;;;;;7.32;3.60;;;;;;;1.03;67.64;100450.72;10103610;28;20043;-71
2021/01/28 22:40:00;;;;;;;11.88;3.60;;;;;;;1.08;68.70;100462.59;10109270;28;20046;-69
2021/01/28 22:44:56;;;;;;;6.55;3.45;;;;;;;0.85;68.80;100453.84;10106268;28;20046;-69
2021/01/28 22:49:52;;;;;;;9.88;3.10;;;;;;;0.96;68.33;100447.47;10099410;28;20050;-69
2021/01/28 22:54:49;;;;;;;11.20;3.72;;;;;;;1.05;69.00;100453.97;10101359;28;21313;-70
2021/01/28 22:59:45;;;;;;;8.45;3.53;;;;;;;0.98;69.17;100445.31;10129183;28;20137;-70